Time,TemperatureF,DewpointF,PressureIn,WindDirection,WindDirectionDegrees,WindSpeedMPH,WindSpeedGustMPH,Humidity,HourlyPrecipIn,Conditions,Clouds,dailyrainin,SoftwareType,DateUTC
2014-01-28 00:02:00,-9.1,-17.4,30.44,WNW,283,4.0,6.0,66,0.00,,FEW033,0.00,VWS V15.00,2014-01-28 06:02:00,
2014-01-28 00:07:00,-9.2,-17.5,30.44,West,263,2.0,4.0,66,0.00,,CLR,0.00,VWS V15.00,2014-01-28 06:07:00,
2014-01-28 00:12:00,-9.2,-17.5,30.44,WSW,254,1.0,2.0,66,0.00,,CLR,0.00,VWS V15.00,2014-01-28 06:12:00,
2014-01-28 00:17:00,-9.3,-17.3,30.44,WSW,256,2.0,2.0,67,0.00,,CLR,0.00,VWS V15.00,2014-01-28 06:17:00,
2014-01-28 00:22:00,-9.5,-17.8,30.44,SW,232,1.0,2.0,66,0.00,,CLR,0.00,VWS V15.00,2014-01-28 06:22:00,
2014-01-28 00:27:00,-9.6,-17.5,30.44,West,274,3.0,5.0,67,0.00,,CLR,0.00,VWS V15.00,2014-01-28 06:27:00,
2014-01-28 00:32:00,-9.7,-17.6,30.44,WSW,252,2.0,2.0,67,0.00,,CLR,0.00,VWS V15.00,2014-01-28 06:32:00,
2014-01-28 00:37:00,-9.7,-17.6,30.44,WSW,250,1.0,3.0,67,0.00,,CLR,0.00,VWS V15.00,2014-01-28 06:37:00,
2014-01-28 00:42:00,-9.8,-17.5,30.44,West,265,2.0,2.0,68,0.00,,CLR,0.00,VWS V15.00,2014-01-28 06:42:00,
2014-01-28 00:47:00,-9.8,-17.5,30.44,WNW,283,1.0,2.0,68,0.00,,CLR,0.00,VWS V15.00,2014-01-28 06:47:00,
2014-01-28 00:52:00,-9.7,-17.4,30.44,West,267,3.0,4.0,68,0.00,,CLR,0.00,VWS V15.00,2014-01-28 06:52:00,
2014-01-28 00:57:00,-9.7,-17.4,30.44,WSW,252,3.0,4.0,68,0.00,,CLR,0.00,VWS V15.00,2014-01-28 06:57:00,
2014-01-28 01:02:00,-9.6,-17.3,30.44,WNW,284,4.0,4.0,68,0.00,,CLR,0.00,VWS V15.00,2014-01-28 07:02:00,
2014-01-28 01:07:00,-9.6,-17.5,30.44,West,259,6.0,6.0,67,0.00,,CLR,0.00,VWS V15.00,2014-01-28 07:07:00,
2014-01-28 01:12:00,-9.5,-17.5,30.44,WNW,283,4.0,8.0,67,0.00,,CLR,0.00,VWS V15.00,2014-01-28 07:12:00,
2014-01-28 01:17:00,-9.5,-17.5,30.44,West,279,3.0,10.0,67,0.00,,CLR,0.00,VWS V15.00,2014-01-28 07:17:00,
2014-01-28 01:22:00,-9.5,-17.2,30.43,West,274,3.0,9.0,68,0.00,,CLR,0.00,VWS V15.00,2014-01-28 07:22:00,
2014-01-28 01:27:00,-9.5,-17.2,30.44,West,279,6.0,7.0,68,0.00,,CLR,0.00,VWS V15.00,2014-01-28 07:27:00,
2014-01-28 01:32:00,-9.4,-17.1,30.44,WSW,254,3.0,4.0,68,0.00,,CLR,0.00,VWS V15.00,2014-01-28 07:32:00,
2014-01-28 01:37:00,-9.5,-17.2,30.43,West,277,4.0,6.0,68,0.00,,CLR,0.00,VWS V15.00,2014-01-28 07:37:00,
2014-01-28 01:42:00,-9.5,-17.2,30.44,WNW,284,2.0,2.0,68,0.00,,CLR,0.00,VWS V15.00,2014-01-28 07:42:00,
2014-01-28 01:47:00,-9.6,-17.3,30.43,NW,311,2.0,2.0,68,0.00,,CLR,0.00,VWS V15.00,2014-01-28 07:47:00,
2014-01-28 01:52:00,-9.7,-17.4,30.43,WSW,252,2.0,3.0,68,0.00,,CLR,0.00,VWS V15.00,2014-01-28 07:52:00,
2014-01-28 01:57:00,-9.7,-17.4,30.43,West,275,3.0,9.0,68,0.00,,CLR,0.00,VWS V15.00,2014-01-28 07:57:00,
2014-01-28 02:02:00,-9.8,-17.5,30.43,West,277,2.0,5.0,68,0.00,,CLR,0.00,VWS V15.00,2014-01-28 08:02:00,
2014-01-28 02:07:00,-9.9,-17.3,30.43,West,261,4.0,5.0,69,0.00,,CLR,0.00,VWS V15.00,2014-01-28 08:07:00,
2014-01-28 02:12:00,-9.9,-17.3,30.43,West,267,2.0,4.0,69,0.00,,CLR,0.00,VWS V15.00,2014-01-28 08:12:00,
2014-01-28 02:17:00,-9.9,-17.3,30.43,West,261,3.0,3.0,69,0.00,,CLR,0.00,VWS V15.00,2014-01-28 08:17:00,
2014-01-28 02:22:00,-9.9,-17.3,30.43,WNW,292,5.0,8.0,69,0.00,,CLR,0.00,VWS V15.00,2014-01-28 08:22:00,
2014-01-28 02:27:00,-9.9,-17.3,30.43,WNW,286,1.0,2.0,69,0.00,,CLR,0.00,VWS V15.00,2014-01-28 08:27:00,
2014-01-28 02:32:00,-9.9,-17.3,30.43,WSW,246,7.0,7.0,69,0.00,,CLR,0.00,VWS V15.00,2014-01-28 08:32:00,
2014-01-28 02:37:00,-10.0,-17.4,30.43,WSW,246,7.0,7.0,69,0.00,,CLR,0.00,VWS V15.00,2014-01-28 08:37:00,
2014-01-28 02:42:00,-10.0,-17.4,30.43,WNW,284,3.0,6.0,69,0.00,,CLR,0.00,VWS V15.00,2014-01-28 08:42:00,
2014-01-28 02:47:00,-10.1,-17.2,30.43,West,263,3.0,3.0,70,0.00,,CLR,0.00,VWS V15.00,2014-01-28 08:47:00,
2014-01-28 02:52:00,-10.2,-17.3,30.43,West,259,1.0,1.0,70,0.00,,CLR,0.00,VWS V15.00,2014-01-28 08:52:00,
2014-01-28 02:57:00,-10.3,-17.4,30.43,WSW,252,2.0,2.0,70,0.00,,CLR,0.00,VWS V15.00,2014-01-28 08:57:00,
2014-01-28 03:02:00,-10.4,-17.5,30.43,West,269,2.0,3.0,70,0.00,,CLR,0.00,VWS V15.00,2014-01-28 09:02:00,
2014-01-28 03:07:00,-10.5,-17.6,30.43,WSW,250,2.0,4.0,70,0.00,,CLR,0.00,VWS V15.00,2014-01-28 09:07:00,
2014-01-28 03:12:00,-10.7,-17.8,30.43,WSW,246,3.0,6.0,70,0.00,,CLR,0.00,VWS V15.00,2014-01-28 09:12:00,
2014-01-28 03:17:00,-10.8,-17.9,30.44,WSW,240,3.0,3.0,70,0.00,,CLR,0.00,VWS V15.00,2014-01-28 09:17:00,
2014-01-28 03:22:00,-11.0,-18.0,30.44,WSW,249,2.0,2.0,70,0.00,,CLR,0.00,VWS V15.00,2014-01-28 09:22:00,
2014-01-28 03:27:00,-11.3,-18.1,30.44,WSW,254,1.0,2.0,71,0.00,,CLR,0.00,VWS V15.00,2014-01-28 09:27:00,
2014-01-28 03:32:00,-11.5,-18.2,30.44,West,267,1.0,1.0,71,0.00,,CLR,0.00,VWS V15.00,2014-01-28 09:32:00,
2014-01-28 03:37:00,-11.6,-18.4,30.44,WSW,249,2.0,2.0,71,0.00,,CLR,0.00,VWS V15.00,2014-01-28 09:37:00,
2014-01-28 03:42:00,-11.7,-18.2,30.44,WSW,257,2.0,3.0,72,0.00,,CLR,0.00,VWS V15.00,2014-01-28 09:42:00,
2014-01-28 03:47:00,-11.7,-18.2,30.44,WSW,257,1.0,4.0,72,0.00,,CLR,0.00,VWS V15.00,2014-01-28 09:47:00,
2014-01-28 03:52:00,-11.8,-18.3,30.44,WSW,240,1.0,2.0,72,0.00,,CLR,0.00,VWS V15.00,2014-01-28 09:52:00,
2014-01-28 03:57:00,-11.9,-18.4,30.43,WSW,249,2.0,2.0,72,0.00,,CLR,0.00,VWS V15.00,2014-01-28 09:57:00,
2014-01-28 04:02:00,-12.0,-18.5,30.43,WSW,247,2.0,2.0,72,0.00,,CLR,0.00,VWS V15.00,2014-01-28 10:02:00,
2014-01-28 04:07:00,-12.0,-18.2,30.43,WSW,243,2.0,2.0,73,0.00,,CLR,0.00,VWS V15.00,2014-01-28 10:07:00,
2014-01-28 04:12:00,-12.1,-18.3,30.44,WSW,248,1.0,1.0,73,0.00,,CLR,0.00,VWS V15.00,2014-01-28 10:12:00,
2014-01-28 04:17:00,-12.2,-18.4,30.44,WSW,244,1.0,2.0,73,0.00,,CLR,0.00,VWS V15.00,2014-01-28 10:17:00,
2014-01-28 04:22:00,-12.2,-18.1,30.44,WSW,252,1.0,1.0,74,0.00,,CLR,0.00,VWS V15.00,2014-01-28 10:22:00,
2014-01-28 04:27:00,-12.2,-18.1,30.44,West,263,1.0,4.0,74,0.00,,CLR,0.00,VWS V15.00,2014-01-28 10:27:00,
2014-01-28 04:32:00,-12.2,-18.1,30.44,WSW,257,1.0,2.0,74,0.00,,CLR,0.00,VWS V15.00,2014-01-28 10:32:00,
2014-01-28 04:37:00,-12.2,-18.1,30.44,West,270,3.0,3.0,74,0.00,,CLR,0.00,VWS V15.00,2014-01-28 10:37:00,
2014-01-28 04:42:00,-12.2,-18.1,30.44,West,259,1.0,2.0,74,0.00,,CLR,0.00,VWS V15.00,2014-01-28 10:42:00,
2014-01-28 04:47:00,-12.2,-18.1,30.44,WSW,254,2.0,2.0,74,0.00,,CLR,0.00,VWS V15.00,2014-01-28 10:47:00,
2014-01-28 04:52:00,-12.3,-18.2,30.44,WSW,254,1.0,2.0,74,0.00,,CLR,0.00,VWS V15.00,2014-01-28 10:52:00,
2014-01-28 04:57:00,-12.4,-18.3,30.44,SW,234,3.0,3.0,74,0.00,,CLR,0.00,VWS V15.00,2014-01-28 10:57:00,
2014-01-28 05:02:00,-12.4,-18.3,30.44,WSW,239,2.0,3.0,74,0.00,,CLR,0.00,VWS V15.00,2014-01-28 11:02:00,
2014-01-28 05:07:00,-12.4,-18.3,30.44,WSW,246,2.0,3.0,74,0.00,,CLR,0.00,VWS V15.00,2014-01-28 11:07:00,
2014-01-28 05:12:00,-12.4,-18.3,30.44,SW,234,3.0,4.0,74,0.00,,CLR,0.00,VWS V15.00,2014-01-28 11:12:00,
2014-01-28 05:17:00,-12.4,-18.3,30.44,WSW,239,4.0,5.0,74,0.00,,CLR,0.00,VWS V15.00,2014-01-28 11:17:00,
2014-01-28 05:22:00,-12.5,-18.4,30.44,SW,234,1.0,2.0,74,0.00,,CLR,0.00,VWS V15.00,2014-01-28 11:22:00,
2014-01-28 05:27:00,-12.6,-18.5,30.44,West,269,2.0,2.0,74,0.00,,CLR,0.00,VWS V15.00,2014-01-28 11:27:00,
2014-01-28 05:32:00,-12.6,-18.3,30.44,WSW,243,1.0,2.0,75,0.00,,CLR,0.00,VWS V15.00,2014-01-28 11:32:00,
2014-01-28 05:37:00,-12.5,-18.2,30.44,West,262,2.0,2.0,75,0.00,,CLR,0.00,VWS V15.00,2014-01-28 11:37:00,
2014-01-28 05:42:00,-12.5,-18.2,30.44,WSW,256,1.0,3.0,75,0.00,,CLR,0.00,VWS V15.00,2014-01-28 11:42:00,
2014-01-28 05:47:00,-12.5,-18.2,30.44,West,265,1.0,1.0,75,0.00,,CLR,0.00,VWS V15.00,2014-01-28 11:47:00,
2014-01-28 05:52:00,-12.5,-18.2,30.43,WSW,254,3.0,4.0,75,0.00,,CLR,0.00,VWS V15.00,2014-01-28 11:52:00,
2014-01-28 05:57:00,-12.4,-18.1,30.43,West,263,2.0,4.0,75,0.00,,CLR,0.00,VWS V15.00,2014-01-28 11:57:00,
2014-01-28 06:02:00,-12.4,-18.1,30.43,West,264,6.0,7.0,75,0.00,,CLR,0.00,VWS V15.00,2014-01-28 12:02:00,
2014-01-28 06:07:00,-12.4,-18.1,30.43,WNW,284,6.0,6.0,75,0.00,,CLR,0.00,VWS V15.00,2014-01-28 12:07:00,
2014-01-28 06:12:00,-12.4,-18.1,30.43,WSW,244,0.0,2.0,75,0.00,,CLR,0.00,VWS V15.00,2014-01-28 12:12:00,
2014-01-28 06:17:00,-12.5,-18.2,30.44,WSW,240,2.0,3.0,75,0.00,,CLR,0.00,VWS V15.00,2014-01-28 12:17:00,
2014-01-28 06:22:00,-12.5,-18.2,30.43,SW,236,1.0,3.0,75,0.00,,CLR,0.00,VWS V15.00,2014-01-28 12:22:00,
2014-01-28 06:27:00,-12.6,-18.3,30.43,West,259,2.0,2.0,75,0.00,,CLR,0.00,VWS V15.00,2014-01-28 12:27:00,
2014-01-28 06:32:00,-12.6,-18.3,30.43,West,270,3.0,5.0,75,0.00,,CLR,0.00,VWS V15.00,2014-01-28 12:32:00,
2014-01-28 06:37:00,-12.6,-18.3,30.43,WSW,244,1.0,2.0,75,0.00,,CLR,0.00,VWS V15.00,2014-01-28 12:37:00,
2014-01-28 06:42:00,-12.6,-18.0,30.43,WSW,250,2.0,2.0,76,0.00,,CLR,0.00,VWS V15.00,2014-01-28 12:42:00,
2014-01-28 06:47:00,-12.6,-18.0,30.43,WSW,253,5.0,6.0,76,0.00,,CLR,0.00,VWS V15.00,2014-01-28 12:47:00,
2014-01-28 06:52:00,-12.7,-18.4,30.43,WNW,288,2.0,7.0,75,0.00,,CLR,0.00,VWS V15.00,2014-01-28 12:52:00,
2014-01-28 06:57:00,-12.6,-18.0,30.43,WSW,245,2.0,4.0,76,0.00,,CLR,0.00,VWS V15.00,2014-01-28 12:57:00,
2014-01-28 07:02:00,-12.6,-18.0,30.43,West,265,2.0,4.0,76,0.00,,CLR,0.00,VWS V15.00,2014-01-28 13:02:00,
2014-01-28 07:07:00,-12.6,-18.3,30.43,West,261,3.0,3.0,75,0.00,,CLR,0.00,VWS V15.00,2014-01-28 13:07:00,
2014-01-28 07:12:00,-12.6,-18.3,30.43,WSW,242,4.0,5.0,75,0.00,,CLR,0.00,VWS V15.00,2014-01-28 13:12:00,
2014-01-28 07:17:00,-12.6,-18.3,30.44,West,278,6.0,6.0,75,0.00,,CLR,0.00,VWS V15.00,2014-01-28 13:17:00,
2014-01-28 07:22:00,-12.5,-18.2,30.44,West,267,3.0,5.0,75,0.00,,CLR,0.00,VWS V15.00,2014-01-28 13:22:00,
2014-01-28 07:27:00,-12.4,-18.1,30.44,West,268,2.0,6.0,75,0.00,,CLR,0.00,VWS V15.00,2014-01-28 13:27:00,
2014-01-28 07:32:00,-12.3,-18.0,30.43,WNW,290,3.0,3.0,75,0.00,,CLR,0.00,VWS V15.00,2014-01-28 13:32:00,
2014-01-28 07:37:00,-12.2,-17.9,30.43,WSW,250,7.0,7.0,75,0.00,,CLR,0.00,VWS V15.00,2014-01-28 13:37:00,
2014-01-28 07:42:00,-12.1,-17.8,30.43,West,277,4.0,4.0,75,0.00,,CLR,0.00,VWS V15.00,2014-01-28 13:42:00,
2014-01-28 07:47:00,-12.0,-17.9,30.43,WSW,257,1.0,3.0,74,0.00,,CLR,0.00,VWS V15.00,2014-01-28 13:47:00,
2014-01-28 07:52:00,-11.8,-17.7,30.43,WSW,248,2.0,3.0,74,0.00,,CLR,0.00,VWS V15.00,2014-01-28 13:52:00,
2014-01-28 07:57:00,-11.6,-17.5,30.43,SW,236,5.0,10.0,74,0.00,,CLR,0.00,VWS V15.00,2014-01-28 13:57:00,
2014-01-28 08:02:00,-11.4,-17.6,30.43,West,261,4.0,8.0,73,0.00,,CLR,0.00,VWS V15.00,2014-01-28 14:02:00,
2014-01-28 08:07:00,-11.3,-17.5,30.44,WSW,250,1.0,3.0,73,0.00,,CLR,0.00,VWS V15.00,2014-01-28 14:07:00,
2014-01-28 08:12:00,-11.3,-17.5,30.44,WSW,246,4.0,7.0,73,0.00,,CLR,0.00,VWS V15.00,2014-01-28 14:12:00,
2014-01-28 08:17:00,-11.0,-17.2,30.44,WSW,242,4.0,4.0,73,0.00,,CLR,0.00,VWS V15.00,2014-01-28 14:17:00,
2014-01-28 08:22:00,-10.8,-17.3,30.44,West,269,4.0,8.0,72,0.00,,CLR,0.00,VWS V15.00,2014-01-28 14:22:00,
2014-01-28 08:27:00,-10.6,-17.1,30.44,NW,304,5.0,5.0,72,0.00,,CLR,0.00,VWS V15.00,2014-01-28 14:27:00,
2014-01-28 08:32:00,-10.4,-16.9,30.44,West,267,2.0,3.0,72,0.00,,CLR,0.00,VWS V15.00,2014-01-28 14:32:00,
2014-01-28 08:37:00,-10.1,-16.9,30.43,WSW,244,11.0,11.0,71,0.00,,CLR,0.00,VWS V15.00,2014-01-28 14:37:00,
2014-01-28 08:42:00,-10.0,-16.8,30.43,West,267,3.0,4.0,71,0.00,,CLR,0.00,VWS V15.00,2014-01-28 14:42:00,
2014-01-28 08:47:00,-9.8,-16.6,30.43,West,270,2.0,6.0,71,0.00,,CLR,0.00,VWS V15.00,2014-01-28 14:47:00,
2014-01-28 08:52:00,-9.8,-16.9,30.43,West,267,3.0,6.0,70,0.00,,CLR,0.00,VWS V15.00,2014-01-28 14:52:00,
2014-01-28 08:57:00,-9.6,-16.7,30.43,West,275,2.0,4.0,70,0.00,,CLR,0.00,VWS V15.00,2014-01-28 14:57:00,
2014-01-28 09:02:00,-9.4,-16.5,30.43,West,263,2.0,3.0,70,0.00,,CLR,0.00,VWS V15.00,2014-01-28 15:02:00,
2014-01-28 09:07:00,-8.8,-15.9,30.43,WSW,255,2.0,5.0,70,0.00,,CLR,0.00,VWS V15.00,2014-01-28 15:07:00,
2014-01-28 09:12:00,-8.3,-15.7,30.43,WSW,255,4.0,7.0,69,0.00,,CLR,0.00,VWS V15.00,2014-01-28 15:12:00,
2014-01-28 09:17:00,-7.8,-15.5,30.43,WSW,249,5.0,8.0,68,0.00,,CLR,0.00,VWS V15.00,2014-01-28 15:17:00,
2014-01-28 09:22:00,-7.5,-15.5,30.43,West,261,3.0,9.0,67,0.00,,CLR,0.00,VWS V15.00,2014-01-28 15:22:00,
2014-01-28 09:27:00,-7.1,-15.1,30.43,West,269,4.0,4.0,67,0.00,,CLR,0.00,VWS V15.00,2014-01-28 15:27:00,
2014-01-28 09:32:00,-6.8,-15.2,30.43,WSW,247,2.0,3.0,66,0.00,,CLR,0.00,VWS V15.00,2014-01-28 15:32:00,
2014-01-28 09:37:00,-6.3,-15.0,30.44,SW,223,3.0,4.0,65,0.00,,CLR,0.00,VWS V15.00,2014-01-28 15:37:00,
2014-01-28 09:42:00,-5.9,-14.6,30.44,WSW,238,1.0,3.0,65,0.00,,CLR,0.00,VWS V15.00,2014-01-28 15:42:00,
2014-01-28 09:47:00,-5.6,-14.6,30.43,WSW,244,4.0,4.0,64,0.00,,CLR,0.00,VWS V15.00,2014-01-28 15:47:00,
2014-01-28 09:52:00,-5.8,-15.1,30.43,West,274,2.0,3.0,63,0.00,,CLR,0.00,VWS V15.00,2014-01-28 15:52:00,
2014-01-28 09:57:00,-5.3,-14.3,30.43,West,266,3.0,9.0,64,0.00,,CLR,0.00,VWS V15.00,2014-01-28 15:57:00,
2014-01-28 10:02:00,-5.2,-14.6,30.43,West,259,4.0,4.0,63,0.00,,CLR,0.00,VWS V15.00,2014-01-28 16:02:00,
2014-01-28 10:07:00,-5.2,-14.6,30.43,WSW,247,5.0,9.0,63,0.00,,CLR,0.00,VWS V15.00,2014-01-28 16:07:00,
2014-01-28 10:12:00,-5.2,-14.6,30.43,WSW,247,3.0,7.0,63,0.00,,CLR,0.00,VWS V15.00,2014-01-28 16:12:00,
2014-01-28 10:17:00,-5.0,-14.7,30.43,WNW,298,4.0,8.0,62,0.00,,CLR,0.00,VWS V15.00,2014-01-28 16:17:00,
2014-01-28 10:22:00,-4.9,-14.3,30.43,NW,317,5.0,7.0,63,0.00,,CLR,0.00,VWS V15.00,2014-01-28 16:22:00,
2014-01-28 10:27:00,-4.6,-14.0,30.43,WSW,257,5.0,5.0,63,0.00,,CLR,0.00,VWS V15.00,2014-01-28 16:27:00,
2014-01-28 10:32:00,-4.4,-13.8,30.43,West,277,2.0,2.0,63,0.00,,CLR,0.00,VWS V15.00,2014-01-28 16:32:00,
2014-01-28 10:37:00,-3.9,-13.3,30.43,WSW,253,7.0,7.0,63,0.00,,CLR,0.00,VWS V15.00,2014-01-28 16:37:00,
2014-01-28 10:42:00,-3.6,-13.7,30.43,WNW,302,5.0,11.0,61,0.00,,CLR,0.00,VWS V15.00,2014-01-28 16:42:00,
2014-01-28 10:47:00,-3.6,-13.3,30.43,West,270,4.0,7.0,62,0.00,,CLR,0.00,VWS V15.00,2014-01-28 16:47:00,
2014-01-28 10:52:00,-3.4,-13.5,30.43,West,269,2.0,4.0,61,0.00,,CLR,0.00,VWS V15.00,2014-01-28 16:52:00,
2014-01-28 10:57:00,-3.2,-13.3,30.42,WSW,241,2.0,5.0,61,0.00,,CLR,0.00,VWS V15.00,2014-01-28 16:57:00,
2014-01-28 11:02:00,-2.7,-12.8,30.42,West,269,4.0,6.0,61,0.00,,CLR,0.00,VWS V15.00,2014-01-28 17:02:00,
2014-01-28 11:07:00,-2.2,-12.0,30.42,WSW,252,2.0,3.0,62,0.00,,CLR,0.00,VWS V15.00,2014-01-28 17:07:00,
2014-01-28 11:12:00,-2.0,-12.5,30.42,WSW,252,4.0,4.0,60,0.00,,CLR,0.00,VWS V15.00,2014-01-28 17:12:00,
2014-01-28 11:17:00,-2.3,-12.8,30.41,WSW,243,4.0,7.0,60,0.00,,CLR,0.00,VWS V15.00,2014-01-28 17:17:00,
2014-01-28 11:22:00,-1.7,-11.9,30.41,WSW,242,3.0,4.0,61,0.00,,CLR,0.00,VWS V15.00,2014-01-28 17:22:00,
2014-01-28 11:27:00,-1.7,-12.5,30.41,WSW,254,2.0,7.0,59,0.00,,CLR,0.00,VWS V15.00,2014-01-28 17:27:00,
2014-01-28 11:32:00,-1.6,-12.1,30.41,SW,224,3.0,4.0,60,0.00,,CLR,0.00,VWS V15.00,2014-01-28 17:32:00,
2014-01-28 11:37:00,-1.3,-12.1,30.40,WSW,241,2.0,7.0,59,0.00,,CLR,0.00,VWS V15.00,2014-01-28 17:37:00,
2014-01-28 11:42:00,-1.5,-12.3,30.40,WSW,244,7.0,7.0,59,0.00,,CLR,0.00,VWS V15.00,2014-01-28 17:42:00,
2014-01-28 11:47:00,-1.7,-12.9,30.40,WSW,255,4.0,7.0,58,0.00,,CLR,0.00,VWS V15.00,2014-01-28 17:47:00,
2014-01-28 11:52:00,-1.4,-11.6,30.40,WSW,252,7.0,7.0,61,0.00,,CLR,0.00,VWS V15.00,2014-01-28 17:52:00,
2014-01-28 11:57:00,-1.4,-11.9,30.39,West,264,3.0,8.0,60,0.00,,CLR,0.00,VWS V15.00,2014-01-28 17:57:00,
2014-01-28 12:02:00,-1.6,-12.4,30.39,SSW,202,3.0,5.0,59,0.00,,CLR,0.00,VWS V15.00,2014-01-28 18:02:00,
2014-01-28 12:07:00,-1.6,-12.1,30.39,SW,235,5.0,8.0,60,0.00,,CLR,0.00,VWS V15.00,2014-01-28 18:07:00,
2014-01-28 12:12:00,-1.3,-11.8,30.38,SW,223,4.0,6.0,60,0.00,,CLR,0.00,VWS V15.00,2014-01-28 18:12:00,
2014-01-28 12:17:00,-1.4,-12.2,30.38,West,272,6.0,10.0,59,0.00,,CLR,0.00,VWS V15.00,2014-01-28 18:17:00,
2014-01-28 12:22:00,-1.6,-12.4,30.38,West,260,8.0,8.0,59,0.00,,CLR,0.00,VWS V15.00,2014-01-28 18:22:00,
2014-01-28 12:27:00,-1.2,-11.4,30.38,West,260,6.0,6.0,61,0.00,,CLR,0.00,VWS V15.00,2014-01-28 18:27:00,
2014-01-28 12:32:00,-1.1,-12.0,30.37,WSW,248,8.0,8.0,59,0.00,,CLR,0.00,VWS V15.00,2014-01-28 18:32:00,
2014-01-28 12:37:00,-0.9,-11.8,30.37,SW,220,3.0,9.0,59,0.00,,CLR,0.00,VWS V15.00,2014-01-28 18:37:00,
2014-01-28 12:42:00,-0.3,-11.2,30.36,SW,234,6.0,8.0,59,0.00,,CLR,0.00,VWS V15.00,2014-01-28 18:42:00,
2014-01-28 12:47:00,-0.1,-10.6,30.36,SW,224,3.0,8.0,60,0.00,,CLR,0.00,VWS V15.00,2014-01-28 18:47:00,
2014-01-28 12:52:00,0.4,-10.9,30.36,SW,232,5.0,5.0,58,0.00,,CLR,0.00,VWS V15.00,2014-01-28 18:52:00,
2014-01-28 12:57:00,0.4,-10.9,30.36,SSW,200,2.0,5.0,58,0.00,,CLR,0.00,VWS V15.00,2014-01-28 18:57:00,
2014-01-28 13:02:00,0.7,-10.6,30.36,SSW,213,5.0,5.0,58,0.00,,CLR,0.00,VWS V15.00,2014-01-28 19:02:00,
2014-01-28 13:07:00,0.6,-10.7,30.35,WSW,247,3.0,4.0,58,0.00,,CLR,0.00,VWS V15.00,2014-01-28 19:07:00,
2014-01-28 13:12:00,0.9,-10.4,30.35,West,265,8.0,8.0,58,0.00,,CLR,0.00,VWS V15.00,2014-01-28 19:12:00,
2014-01-28 13:17:00,0.9,-10.8,30.35,WSW,237,4.0,6.0,57,0.00,,CLR,0.00,VWS V15.00,2014-01-28 19:17:00,
2014-01-28 13:22:00,0.9,-10.8,30.35,SW,230,4.0,4.0,57,0.00,,CLR,0.00,VWS V15.00,2014-01-28 19:22:00,
2014-01-28 13:27:00,1.0,-10.0,30.35,SSW,211,3.0,7.0,59,0.00,,CLR,0.00,VWS V15.00,2014-01-28 19:27:00,
2014-01-28 13:32:00,0.9,-10.1,30.35,SW,220,2.0,4.0,59,0.00,,CLR,0.00,VWS V15.00,2014-01-28 19:32:00,
2014-01-28 13:37:00,1.0,-10.0,30.35,SSW,197,1.0,5.0,59,0.00,,CLR,0.00,VWS V15.00,2014-01-28 19:37:00,
2014-01-28 13:42:00,0.9,-9.7,30.34,SSW,202,6.0,6.0,60,0.00,,CLR,0.00,VWS V15.00,2014-01-28 19:42:00,
2014-01-28 13:47:00,0.9,-10.1,30.34,West,260,3.0,5.0,59,0.00,,CLR,0.00,VWS V15.00,2014-01-28 19:47:00,
2014-01-28 13:52:00,1.0,-9.6,30.34,South,191,3.0,5.0,60,0.00,,CLR,0.00,VWS V15.00,2014-01-28 19:52:00,
2014-01-28 13:57:00,0.8,-9.8,30.34,SW,227,7.0,8.0,60,0.00,,CLR,0.00,VWS V15.00,2014-01-28 19:57:00,
2014-01-28 14:02:00,0.9,-9.1,30.34,WSW,251,4.0,8.0,62,0.00,,CLR,0.00,VWS V15.00,2014-01-28 20:02:00,
2014-01-28 14:07:00,0.8,-9.8,30.33,West,265,6.0,8.0,60,0.00,,CLR,0.00,VWS V15.00,2014-01-28 20:07:00,
2014-01-28 14:12:00,0.9,-9.4,30.33,WSW,238,3.0,8.0,61,0.00,,CLR,0.00,VWS V15.00,2014-01-28 20:12:00,
2014-01-28 14:17:00,1.0,-9.3,30.33,SW,232,3.0,5.0,61,0.00,,CLR,0.00,VWS V15.00,2014-01-28 20:17:00,
2014-01-28 14:22:00,0.8,-9.5,30.33,SW,227,6.0,6.0,61,0.00,,CLR,0.00,VWS V15.00,2014-01-28 20:22:00,
2014-01-28 14:27:00,0.5,-9.8,30.33,SSW,194,3.0,4.0,61,0.00,,CLR,0.00,VWS V15.00,2014-01-28 20:27:00,
2014-01-28 14:32:00,0.6,-9.7,30.33,SW,230,4.0,7.0,61,0.00,,CLR,0.00,VWS V15.00,2014-01-28 20:32:00,
2014-01-28 14:37:00,0.8,-9.5,30.33,West,280,8.0,8.0,61,0.00,,CLR,0.00,VWS V15.00,2014-01-28 20:37:00,
2014-01-28 14:42:00,0.8,-9.8,30.33,SW,229,6.0,8.0,60,0.00,,CLR,0.00,VWS V15.00,2014-01-28 20:42:00,
2014-01-28 14:47:00,0.8,-9.8,30.32,WSW,250,5.0,6.0,60,0.00,,CLR,0.00,VWS V15.00,2014-01-28 20:47:00,
2014-01-28 14:52:00,1.1,-9.2,30.32,WSW,243,4.0,4.0,61,0.00,,CLR,0.00,VWS V15.00,2014-01-28 20:52:00,
2014-01-28 14:57:00,1.4,-9.6,30.32,WSW,250,4.0,7.0,59,0.00,,CLR,0.00,VWS V15.00,2014-01-28 20:57:00,
2014-01-28 15:02:00,1.5,-9.5,30.32,SW,230,5.0,6.0,59,0.00,,CLR,0.00,VWS V15.00,2014-01-28 21:02:00,
2014-01-28 15:07:00,1.6,-9.4,30.32,SW,230,7.0,7.0,59,0.00,,CLR,0.00,VWS V15.00,2014-01-28 21:07:00,
2014-01-28 15:12:00,1.4,-9.9,30.31,SW,234,3.0,5.0,58,0.00,,CLR,0.00,VWS V15.00,2014-01-28 21:12:00,
2014-01-28 15:17:00,1.5,-9.8,30.32,SW,219,4.0,6.0,58,0.00,,CLR,0.00,VWS V15.00,2014-01-28 21:17:00,
2014-01-28 15:22:00,1.8,-9.6,30.31,SW,233,2.0,4.0,58,0.00,,CLR,0.00,VWS V15.00,2014-01-28 21:22:00,
2014-01-28 15:27:00,1.6,-9.8,30.31,WSW,240,5.0,5.0,58,0.00,,CLR,0.00,VWS V15.00,2014-01-28 21:27:00,
2014-01-28 15:32:00,1.6,-9.8,30.31,SW,217,6.0,9.0,58,0.00,,CLR,0.00,VWS V15.00,2014-01-28 21:32:00,
2014-01-28 15:37:00,1.6,-9.8,30.32,WNW,288,7.0,7.0,58,0.00,,CLR,0.00,VWS V15.00,2014-01-28 21:37:00,
2014-01-28 15:42:00,1.8,-9.9,30.31,SW,235,4.0,4.0,57,0.00,,CLR,0.00,VWS V15.00,2014-01-28 21:42:00,
2014-01-28 15:47:00,1.9,-9.8,30.31,SSW,211,7.0,7.0,57,0.00,,CLR,0.00,VWS V15.00,2014-01-28 21:47:00,
2014-01-28 15:52:00,1.5,-10.2,30.31,SW,217,6.0,10.0,57,0.00,,CLR,0.00,VWS V15.00,2014-01-28 21:52:00,
2014-01-28 15:57:00,1.3,-10.0,30.30,SW,234,2.0,5.0,58,0.00,,CLR,0.00,VWS V15.00,2014-01-28 21:57:00,
2014-01-28 16:02:00,1.4,-9.6,30.31,WSW,238,3.0,4.0,59,0.00,,CLR,0.00,VWS V15.00,2014-01-28 22:02:00,
2014-01-28 16:07:00,1.3,-10.0,30.31,West,261,8.0,8.0,58,0.00,,CLR,0.00,VWS V15.00,2014-01-28 22:07:00,
2014-01-28 16:12:00,1.3,-9.7,30.31,WSW,246,4.0,4.0,59,0.00,,CLR,0.00,VWS V15.00,2014-01-28 22:12:00,
2014-01-28 16:17:00,1.3,-9.7,30.31,SW,216,1.0,2.0,59,0.00,,CLR,0.00,VWS V15.00,2014-01-28 22:17:00,
2014-01-28 16:22:00,1.2,-9.4,30.31,SW,232,4.0,4.0,60,0.00,,CLR,0.00,VWS V15.00,2014-01-28 22:22:00,
2014-01-28 16:27:00,1.0,-9.6,30.31,SW,233,4.0,5.0,60,0.00,,CLR,0.00,VWS V15.00,2014-01-28 22:27:00,
2014-01-28 16:32:00,0.8,-9.5,30.31,SW,236,3.0,4.0,61,0.00,,CLR,0.00,VWS V15.00,2014-01-28 22:32:00,
2014-01-28 16:37:00,0.5,-9.8,30.30,SW,234,4.0,5.0,61,0.00,,CLR,0.00,VWS V15.00,2014-01-28 22:37:00,
2014-01-28 16:42:00,0.4,-9.5,30.30,SW,220,2.0,4.0,62,0.00,,CLR,0.00,VWS V15.00,2014-01-28 22:42:00,
2014-01-28 16:47:00,0.3,-9.6,30.30,WSW,238,4.0,7.0,62,0.00,,CLR,0.00,VWS V15.00,2014-01-28 22:47:00,
2014-01-28 16:52:00,0.2,-9.7,30.30,WSW,240,3.0,4.0,62,0.00,,CLR,0.00,VWS V15.00,2014-01-28 22:52:00,
2014-01-28 16:57:00,0.2,-9.7,30.30,WSW,240,3.0,3.0,62,0.00,,CLR,0.00,VWS V15.00,2014-01-28 22:57:00,
2014-01-28 17:02:00,0.1,-9.8,30.30,SW,236,7.0,7.0,62,0.00,,CLR,0.00,VWS V15.00,2014-01-28 23:02:00,
2014-01-28 17:07:00,0.1,-9.6,30.29,SW,236,5.0,5.0,63,0.00,,CLR,0.00,VWS V15.00,2014-01-28 23:07:00,
2014-01-28 17:12:00,-0.1,-9.7,30.30,SW,227,4.0,4.0,63,0.00,,CLR,0.00,VWS V15.00,2014-01-28 23:12:00,
2014-01-28 17:17:00,-0.2,-9.5,30.30,SSW,211,4.0,5.0,64,0.00,,CLR,0.00,VWS V15.00,2014-01-28 23:17:00,
2014-01-28 17:22:00,-0.3,-9.6,30.29,WSW,238,2.0,6.0,64,0.00,,CLR,0.00,VWS V15.00,2014-01-28 23:22:00,
2014-01-28 17:27:00,-0.3,-9.6,30.29,SW,225,3.0,4.0,64,0.00,,CLR,0.00,VWS V15.00,2014-01-28 23:27:00,
2014-01-28 17:32:00,-0.4,-9.6,30.29,SW,225,4.0,4.0,64,0.00,,CLR,0.00,VWS V15.00,2014-01-28 23:32:00,
2014-01-28 17:37:00,-0.4,-9.6,30.29,WSW,240,4.0,5.0,64,0.00,,CLR,0.00,VWS V15.00,2014-01-28 23:37:00,
2014-01-28 17:42:00,-0.4,-9.6,30.29,WSW,251,2.0,2.0,64,0.00,,CLR,0.00,VWS V15.00,2014-01-28 23:42:00,
2014-01-28 17:47:00,-0.4,-9.6,30.29,WSW,246,4.0,4.0,64,0.00,,CLR,0.00,VWS V15.00,2014-01-28 23:47:00,
2014-01-28 17:52:00,-0.5,-9.8,30.29,WSW,238,4.0,4.0,64,0.00,,CLR,0.00,VWS V15.00,2014-01-28 23:52:00,
2014-01-28 17:57:00,-0.5,-9.4,30.29,SW,214,5.0,7.0,65,0.00,,CLR,0.00,VWS V15.00,2014-01-28 23:57:00,
2014-01-28 18:02:00,-0.6,-9.5,30.29,WSW,251,5.0,5.0,65,0.00,,CLR,0.00,VWS V15.00,2014-01-29 00:02:00,
2014-01-28 18:07:00,-0.6,-9.5,30.29,SSW,209,5.0,5.0,65,0.00,,CLR,0.00,VWS V15.00,2014-01-29 00:07:00,
2014-01-28 18:12:00,-0.7,-9.6,30.29,SW,231,2.0,4.0,65,0.00,,CLR,0.00,VWS V15.00,2014-01-29 00:12:00,
2014-01-28 18:17:00,-0.7,-9.6,30.29,SW,218,1.0,3.0,65,0.00,,CLR,0.00,VWS V15.00,2014-01-29 00:17:00,
2014-01-28 18:22:00,-0.8,-9.7,30.29,SSW,206,5.0,5.0,65,0.00,,CLR,0.00,VWS V15.00,2014-01-29 00:22:00,
2014-01-28 18:27:00,-0.9,-9.8,30.29,SW,231,1.0,2.0,65,0.00,,CLR,0.00,VWS V15.00,2014-01-29 00:27:00,
2014-01-28 18:30:00,-0.9,-9.8,30.29,SSW,213,3.0,6.0,65,0.00,,CLR,0.00,VWS V15.00,2014-01-29 00:30:00,
2014-01-28 18:35:00,-1.0,-9.9,30.29,SW,227,2.0,4.0,65,0.00,,CLR,0.00,VWS V15.00,2014-01-29 00:35:00,
2014-01-28 18:40:00,-1.1,-10.0,30.29,SSW,205,4.0,4.0,65,0.00,,CLR,0.00,VWS V15.00,2014-01-29 00:40:00,
2014-01-28 18:45:00,-1.1,-10.0,30.29,SW,236,3.0,3.0,65,0.00,,CLR,0.00,VWS V15.00,2014-01-29 00:45:00,
2014-01-28 18:50:00,-1.2,-10.1,30.29,SW,236,3.0,4.0,65,0.00,,CLR,0.00,VWS V15.00,2014-01-29 00:50:00,
2014-01-28 18:55:00,-1.1,-10.0,30.29,SSW,212,5.0,6.0,65,0.00,,CLR,0.00,VWS V15.00,2014-01-29 00:55:00,
2014-01-28 19:00:00,-0.9,-10.1,30.29,SW,232,5.0,5.0,64,0.00,,CLR,0.00,VWS V15.00,2014-01-29 01:00:00,
2014-01-28 19:05:00,-0.8,-10.0,30.28,WSW,250,3.0,4.0,64,0.00,,CLR,0.00,VWS V15.00,2014-01-29 01:05:00,
2014-01-28 19:10:00,-0.8,-10.4,30.28,SSW,208,2.0,2.0,63,0.00,,CLR,0.00,VWS V15.00,2014-01-29 01:10:00,
2014-01-28 19:15:00,-0.9,-10.4,30.28,SW,221,5.0,6.0,63,0.00,,CLR,0.00,VWS V15.00,2014-01-29 01:15:00,
2014-01-28 19:20:00,-0.9,-10.4,30.28,WSW,243,5.0,5.0,63,0.00,,CLR,0.00,VWS V15.00,2014-01-29 01:20:00,
2014-01-28 19:25:00,-0.9,-10.4,30.28,WSW,250,4.0,4.0,63,0.00,,CLR,0.00,VWS V15.00,2014-01-29 01:25:00,
2014-01-28 19:30:00,-0.9,-10.4,30.28,SW,226,4.0,4.0,63,0.00,,CLR,0.00,VWS V15.00,2014-01-29 01:30:00,
2014-01-28 19:35:00,-0.9,-10.1,30.28,SW,229,4.0,4.0,64,0.00,,CLR,0.00,VWS V15.00,2014-01-29 01:35:00,
2014-01-28 19:40:00,-1.0,-10.2,30.28,SW,225,3.0,5.0,64,0.00,,CLR,0.00,VWS V15.00,2014-01-29 01:40:00,
2014-01-28 19:45:00,-1.0,-10.2,30.27,SW,225,7.0,7.0,64,0.00,,CLR,0.00,VWS V15.00,2014-01-29 01:45:00,
2014-01-28 19:50:00,-1.0,-10.2,30.28,West,259,4.0,8.0,64,0.00,,CLR,0.00,VWS V15.00,2014-01-29 01:50:00,
2014-01-28 19:55:00,-1.0,-9.9,30.27,WSW,252,4.0,4.0,65,0.00,,CLR,0.00,VWS V15.00,2014-01-29 01:55:00,
2014-01-28 20:01:00,-1.0,-9.9,30.27,WSW,240,3.0,4.0,65,0.00,,CLR,0.00,VWS V15.00,2014-01-29 02:01:00,
2014-01-28 20:06:00,-0.9,-9.8,30.27,WSW,238,5.0,7.0,65,0.00,,CLR,0.00,VWS V15.00,2014-01-29 02:06:00,
2014-01-28 20:11:00,-0.9,-9.8,30.27,SW,214,2.0,3.0,65,0.00,,CLR,0.00,VWS V15.00,2014-01-29 02:11:00,
2014-01-28 20:16:00,-1.0,-9.9,30.27,WSW,250,2.0,5.0,65,0.00,,CLR,0.00,VWS V15.00,2014-01-29 02:16:00,
2014-01-28 20:21:00,-1.0,-9.6,30.26,WSW,238,4.0,4.0,66,0.00,,CLR,0.00,VWS V15.00,2014-01-29 02:21:00,
2014-01-28 20:26:00,-1.0,-9.6,30.26,SW,235,3.0,5.0,66,0.00,,CLR,0.00,VWS V15.00,2014-01-29 02:26:00,
2014-01-28 20:31:00,-1.0,-9.6,30.26,WSW,237,4.0,7.0,66,0.00,,CLR,0.00,VWS V15.00,2014-01-29 02:31:00,
2014-01-28 20:36:00,-1.0,-9.6,30.26,WSW,239,3.0,7.0,66,0.00,,CLR,0.00,VWS V15.00,2014-01-29 02:36:00,
2014-01-28 20:41:00,-1.0,-9.3,30.26,SW,236,3.0,5.0,67,0.00,,CLR,0.00,VWS V15.00,2014-01-29 02:41:00,
2014-01-28 20:46:00,-0.9,-9.2,30.26,SW,236,5.0,5.0,67,0.00,,CLR,0.00,VWS V15.00,2014-01-29 02:46:00,
2014-01-28 20:51:00,-1.0,-9.3,30.26,WSW,256,2.0,5.0,67,0.00,,CLR,0.00,VWS V15.00,2014-01-29 02:51:00,
2014-01-28 20:56:00,-1.1,-9.1,30.26,WSW,239,4.0,4.0,68,0.00,,CLR,0.00,VWS V15.00,2014-01-29 02:56:00,
2014-01-28 21:01:00,-1.0,-9.0,30.26,WSW,239,4.0,7.0,68,0.00,,CLR,0.00,VWS V15.00,2014-01-29 03:01:00,
2014-01-28 21:06:00,-1.0,-9.0,30.26,West,261,3.0,5.0,68,0.00,,CLR,0.00,VWS V15.00,2014-01-29 03:06:00,
2014-01-28 21:11:00,-1.0,-9.0,30.26,WSW,244,7.0,7.0,68,0.00,,CLR,0.00,VWS V15.00,2014-01-29 03:11:00,
2014-01-28 21:16:00,-1.0,-8.7,30.26,SW,223,5.0,7.0,69,0.00,,CLR,0.00,VWS V15.00,2014-01-29 03:16:00,
2014-01-28 21:21:00,-1.0,-8.7,30.25,WSW,242,3.0,4.0,69,0.00,,CLR,0.00,VWS V15.00,2014-01-29 03:21:00,
2014-01-28 21:26:00,-1.0,-8.7,30.25,WSW,257,4.0,4.0,69,0.00,,CLR,0.00,VWS V15.00,2014-01-29 03:26:00,
2014-01-28 21:31:00,-1.0,-8.7,30.25,SW,214,5.0,5.0,69,0.00,,CLR,0.00,VWS V15.00,2014-01-29 03:31:00,
2014-01-28 21:36:00,-1.1,-8.8,30.25,WSW,242,3.0,3.0,69,0.00,,CLR,0.00,VWS V15.00,2014-01-29 03:36:00,
2014-01-28 21:41:00,-1.2,-8.9,30.25,SW,227,3.0,3.0,69,0.00,,CLR,0.00,VWS V15.00,2014-01-29 03:41:00,
2014-01-28 21:46:00,-1.3,-8.7,30.25,SW,231,2.0,2.0,70,0.00,,CLR,0.00,VWS V15.00,2014-01-29 03:46:00,
2014-01-28 21:51:00,-1.3,-8.7,30.25,WSW,257,2.0,3.0,70,0.00,,CLR,0.00,VWS V15.00,2014-01-29 03:51:00,
2014-01-28 21:56:00,-1.3,-8.7,30.25,WSW,258,2.0,3.0,70,0.00,,CLR,0.00,VWS V15.00,2014-01-29 03:56:00,
2014-01-28 22:01:00,-1.3,-8.7,30.25,WSW,252,3.0,3.0,70,0.00,,CLR,0.00,VWS V15.00,2014-01-29 04:01:00,
2014-01-28 22:06:00,-1.3,-8.7,30.25,WSW,244,3.0,6.0,70,0.00,,CLR,0.00,VWS V15.00,2014-01-29 04:06:00,
2014-01-28 22:11:00,-1.1,-8.5,30.25,WSW,242,4.0,5.0,70,0.00,,CLR,0.00,VWS V15.00,2014-01-29 04:11:00,
2014-01-28 22:16:00,-0.7,-8.4,30.25,WSW,252,3.0,8.0,69,0.00,,CLR,0.00,VWS V15.00,2014-01-29 04:16:00,
2014-01-28 22:21:00,-0.4,-8.4,30.25,WSW,254,3.0,5.0,68,0.00,,CLR,0.00,VWS V15.00,2014-01-29 04:21:00,
2014-01-28 22:26:00,-0.2,-8.2,30.25,West,263,4.0,10.0,68,0.00,,CLR,0.00,VWS V15.00,2014-01-29 04:26:00,
2014-01-28 22:31:00,-0.1,-8.4,30.25,SW,236,2.0,3.0,67,0.00,,CLR,0.00,VWS V15.00,2014-01-29 04:31:00,
2014-01-28 22:36:00,-0.1,-8.3,30.25,WSW,247,5.0,7.0,67,0.00,,CLR,0.00,VWS V15.00,2014-01-29 04:36:00,
2014-01-28 22:41:00,-0.1,-8.6,30.25,WSW,238,5.0,9.0,66,0.00,,CLR,0.00,VWS V15.00,2014-01-29 04:41:00,
2014-01-28 22:46:00,-0.1,-8.6,30.25,WSW,239,5.0,5.0,66,0.00,,CLR,0.00,VWS V15.00,2014-01-29 04:46:00,
2014-01-28 22:51:00,0.1,-8.6,30.25,West,279,4.0,9.0,66,0.00,,CLR,0.00,VWS V15.00,2014-01-29 04:51:00,
2014-01-28 22:56:00,0.1,-8.6,30.25,WSW,237,7.0,12.0,66,0.00,,CLR,0.00,VWS V15.00,2014-01-29 04:56:00,
2014-01-28 23:01:00,0.1,-8.6,30.25,WSW,242,3.0,7.0,66,0.00,,CLR,0.00,VWS V15.00,2014-01-29 05:01:00,
2014-01-28 23:02:00,0.1,-8.6,30.25,West,261,6.0,12.0,66,0.00,,CLR,0.00,VWS V15.00,2014-01-29 05:02:00,
2014-01-28 23:03:00,0.1,-8.6,30.25,WSW,250,5.0,9.0,66,0.00,,CLR,0.00,VWS V15.00,2014-01-29 05:03:00,
2014-01-28 23:08:00,-0.1,-8.7,30.25,West,269,6.0,8.0,66,0.00,,CLR,0.00,VWS V15.00,2014-01-29 05:08:00,
2014-01-28 23:12:00,-0.2,-8.5,30.25,West,271,6.0,10.0,67,0.00,,CLR,0.00,VWS V15.00,2014-01-29 05:12:00,
2014-01-28 23:17:00,-0.2,-8.5,30.25,WSW,257,4.0,8.0,67,0.00,,CLR,0.00,VWS V15.00,2014-01-29 05:17:00,
2014-01-28 23:22:00,-0.3,-8.6,30.25,West,273,3.0,9.0,67,0.00,,CLR,0.00,VWS V15.00,2014-01-29 05:22:00,
2014-01-28 23:27:00,-0.4,-8.7,30.24,West,275,4.0,11.0,67,0.00,,CLR,0.00,VWS V15.00,2014-01-29 05:27:00,
2014-01-28 23:32:00,-0.4,-8.7,30.24,WSW,250,5.0,10.0,67,0.00,,CLR,0.00,VWS V15.00,2014-01-29 05:32:00,
2014-01-28 23:38:00,-0.4,-8.7,30.24,WSW,252,5.0,10.0,67,0.00,,CLR,0.00,VWS V15.00,2014-01-29 05:38:00,
2014-01-28 23:43:00,-0.4,-8.7,30.24,WSW,257,5.0,6.0,67,0.00,,CLR,0.00,VWS V15.00,2014-01-29 05:43:00,
2014-01-28 23:48:00,-0.4,-9.0,30.24,WNW,294,7.0,9.0,66,0.00,,CLR,0.00,VWS V15.00,2014-01-29 05:48:00,
2014-01-28 23:53:00,-0.4,-8.7,30.24,West,271,8.0,10.0,67,0.00,,CLR,0.00,VWS V15.00,2014-01-29 05:53:00,
2014-01-28 23:58:00,-0.5,-8.8,30.23,West,267,7.0,9.0,67,0.00,,CLR,0.00,VWS V15.00,2014-01-29 05:58:00,